sensor_id;sensor_type;location;lat;lon;timestamp;pressure;altitude;pressure_sealevel;temperature;humidity
39363;BME280;25088;43.238;23.110;2022-07-19T00:01:36;97108.38;;;18.12;60.49
39363;BME280;25088;43.238;23.110;2022-07-19T00:04:01;97141.13;;;18.29;60.24
39363;BME280;25088;43.238;23.110;2022-07-19T00:06:27;97131.44;;;18.31;60.45
39363;BME280;25088;43.238;23.110;2022-07-19T00:08:53;97134.41;;;18.40;60.42
39363;BME280;25088;43.238;23.110;2022-07-19T00:11:18;97113.00;;;18.22;60.63
39363;BME280;25088;43.238;23.110;2022-07-19T00:13:44;97133.31;;;18.36;59.60
39363;BME280;25088;43.238;23.110;2022-07-19T00:16:09;97125.81;;;18.42;59.38
39363;BME280;25088;43.238;23.110;2022-07-19T00:18:35;97131.34;;;18.42;59.19
39363;BME280;25088;43.238;23.110;2022-07-19T00:21:00;97126.63;;;18.42;59.28
39363;BME280;25088;43.238;23.110;2022-07-19T00:23:26;97120.56;;;18.40;58.73
39363;BME280;25088;43.238;23.110;2022-07-19T00:25:52;97122.97;;;18.47;58.81
39363;BME280;25088;43.238;23.110;2022-07-19T00:28:17;97125.50;;;18.43;59.48
39363;BME280;25088;43.238;23.110;2022-07-19T00:30:43;97069.59;;;17.93;59.46
39363;BME280;25088;43.238;23.110;2022-07-19T00:33:08;97098.00;;;18.28;59.27
39363;BME280;25088;43.238;23.110;2022-07-19T00:35:35;97129.59;;;18.51;58.96
39363;BME280;25088;43.238;23.110;2022-07-19T00:38:19;97134.97;;;18.37;59.33
39363;BME280;25088;43.238;23.110;2022-07-19T00:40:44;97126.97;;;18.36;59.93
39363;BME280;25088;43.238;23.110;2022-07-19T00:43:11;97127.28;;;18.29;59.71
39363;BME280;25088;43.238;23.110;2022-07-19T00:45:37;97119.50;;;18.36;59.64
39363;BME280;25088;43.238;23.110;2022-07-19T00:48:04;97112.41;;;18.25;59.80
39363;BME280;25088;43.238;23.110;2022-07-19T00:50:30;97093.59;;;17.98;60.62
39363;BME280;25088;43.238;23.110;2022-07-19T00:52:58;97123.44;;;18.25;59.77
39363;BME280;25088;43.238;23.110;2022-07-19T00:55:29;97061.09;;;17.85;60.54
39363;BME280;25088;43.238;23.110;2022-07-19T00:57:57;97111.41;;;18.16;60.74
39363;BME280;25088;43.238;23.110;2022-07-19T01:00:23;97116.38;;;18.14;60.29
39363;BME280;25088;43.238;23.110;2022-07-19T01:02:50;97120.06;;;18.33;59.10
39363;BME280;25088;43.238;23.110;2022-07-19T01:05:16;97083.78;;;18.16;59.02
39363;BME280;25088;43.238;23.110;2022-07-19T01:07:42;97115.38;;;18.33;59.98
39363;BME280;25088;43.238;23.110;2022-07-19T01:10:10;97122.09;;;18.22;60.30
39363;BME280;25088;43.238;23.110;2022-07-19T01:12:36;97118.03;;;18.15;60.38
39363;BME280;25088;43.238;23.110;2022-07-19T01:15:12;97115.81;;;18.17;60.86
39363;BME280;25088;43.238;23.110;2022-07-19T01:17:38;97098.34;;;17.92;61.02
39363;BME280;25088;43.238;23.110;2022-07-19T01:20:04;97113.03;;;18.17;60.46
39363;BME280;25088;43.238;23.110;2022-07-19T01:22:30;97093.03;;;18.01;60.66
39363;BME280;25088;43.238;23.110;2022-07-19T01:24:55;97097.72;;;18.00;60.98
39363;BME280;25088;43.238;23.110;2022-07-19T01:27:21;97104.59;;;18.03;61.80
39363;BME280;25088;43.238;23.110;2022-07-19T01:29:46;97068.84;;;17.82;61.65
39363;BME280;25088;43.238;23.110;2022-07-19T01:32:12;97095.22;;;17.99;61.76
39363;BME280;25088;43.238;23.110;2022-07-19T01:34:37;97093.59;;;17.98;61.68
39363;BME280;25088;43.238;23.110;2022-07-19T01:37:03;97097.16;;;17.98;61.58
39363;BME280;25088;43.238;23.110;2022-07-19T01:39:29;97080.16;;;17.86;61.30
39363;BME280;25088;43.238;23.110;2022-07-19T01:41:54;97083.34;;;17.98;60.88
39363;BME280;25088;43.238;23.110;2022-07-19T01:44:20;97096.09;;;17.94;61.76
39363;BME280;25088;43.238;23.110;2022-07-19T01:46:45;97090.06;;;17.92;61.67
39363;BME280;25088;43.238;23.110;2022-07-19T01:49:11;97098.84;;;17.94;61.64
39363;BME280;25088;43.238;23.110;2022-07-19T01:51:36;97097.94;;;18.04;60.95
39363;BME280;25088;43.238;23.110;2022-07-19T01:54:02;97097.09;;;18.08;60.48
39363;BME280;25088;43.238;23.110;2022-07-19T01:56:27;97084.38;;;18.07;60.58
39363;BME280;25088;43.238;23.110;2022-07-19T01:58:53;97093.88;;;17.96;61.39
39363;BME280;25088;43.238;23.110;2022-07-19T02:01:18;97087.81;;;17.94;62.26
39363;BME280;25088;43.238;23.110;2022-07-19T02:03:44;97093.69;;;17.88;61.90
39363;BME280;25088;43.238;23.110;2022-07-19T02:06:09;97096.28;;;17.69;63.29
39363;BME280;25088;43.238;23.110;2022-07-19T02:08:35;97098.19;;;17.73;62.54
39363;BME280;25088;43.238;23.110;2022-07-19T02:11:00;97096.25;;;17.74;62.61
39363;BME280;25088;43.238;23.110;2022-07-19T02:13:46;97102.38;;;17.66;62.75
39363;BME280;25088;43.238;23.110;2022-07-19T02:16:11;97093.81;;;17.67;62.80
39363;BME280;25088;43.238;23.110;2022-07-19T02:18:37;97112.56;;;17.70;62.72
39363;BME280;25088;43.238;23.110;2022-07-19T02:21:02;97101.78;;;17.74;62.43
39363;BME280;25088;43.238;23.110;2022-07-19T02:23:28;97110.03;;;17.79;62.13
39363;BME280;25088;43.238;23.110;2022-07-19T02:25:53;97110.25;;;17.88;61.23
39363;BME280;25088;43.238;23.110;2022-07-19T02:28:19;97104.38;;;17.94;60.79
39363;BME280;25088;43.238;23.110;2022-07-19T02:30:44;97111.75;;;18.04;60.96
39363;BME280;25088;43.238;23.110;2022-07-19T02:33:10;97107.06;;;18.04;60.48
39363;BME280;25088;43.238;23.110;2022-07-19T02:35:35;97106.59;;;17.97;60.22
39363;BME280;25088;43.238;23.110;2022-07-19T02:38:01;97112.78;;;18.13;59.99
39363;BME280;25088;43.238;23.110;2022-07-19T02:40:27;97098.50;;;18.06;60.01
39363;BME280;25088;43.238;23.110;2022-07-19T02:42:52;97112.75;;;18.18;59.73
39363;BME280;25088;43.238;23.110;2022-07-19T02:45:18;97113.88;;;18.17;59.60
39363;BME280;25088;43.238;23.110;2022-07-19T02:47:43;97117.19;;;18.14;60.09
39363;BME280;25088;43.238;23.110;2022-07-19T02:50:09;97112.78;;;18.13;59.99
39363;BME280;25088;43.238;23.110;2022-07-19T02:52:34;97112.41;;;17.96;60.66
39363;BME280;25088;43.238;23.110;2022-07-19T02:55:00;97124.03;;;17.93;61.51
39363;BME280;25088;43.238;23.110;2022-07-19T02:57:25;97125.22;;;17.81;61.97
39363;BME280;25088;43.238;23.110;2022-07-19T02:59:50;97128.28;;;17.70;62.21
39363;BME280;25088;43.238;23.110;2022-07-19T03:02:16;97121.69;;;17.71;61.61
39363;BME280;25088;43.238;23.110;2022-07-19T03:04:42;97122.69;;;17.85;61.42
39363;BME280;25088;43.238;23.110;2022-07-19T03:07:07;97122.19;;;17.78;62.21
39363;BME280;25088;43.238;23.110;2022-07-19T03:09:33;97123.06;;;17.68;62.87
39363;BME280;25088;43.238;23.110;2022-07-19T03:11:58;97117.88;;;17.62;63.16
39363;BME280;25088;43.238;23.110;2022-07-19T03:14:24;97119.81;;;17.61;62.75
39363;BME280;25088;43.238;23.110;2022-07-19T03:16:49;97132.97;;;17.74;62.57
39363;BME280;25088;43.238;23.110;2022-07-19T03:19:15;97133.84;;;17.65;62.82
39363;BME280;25088;43.238;23.110;2022-07-19T03:21:41;97143.91;;;17.50;63.91
39363;BME280;25088;43.238;23.110;2022-07-19T03:24:06;97103.63;;;17.44;63.88
39363;BME280;25088;43.238;23.110;2022-07-19T03:26:32;97140.00;;;17.56;63.51
39363;BME280;25088;43.238;23.110;2022-07-19T03:28:57;97121.81;;;17.45;62.94
39363;BME280;25088;43.238;23.110;2022-07-19T03:31:22;97138.81;;;17.73;62.10
39363;BME280;25088;43.238;23.110;2022-07-19T03:33:48;97140.97;;;17.81;62.00
39363;BME280;25088;43.238;23.110;2022-07-19T03:36:13;97113.69;;;17.64;60.99
39363;BME280;25088;43.238;23.110;2022-07-19T03:38:39;97139.78;;;17.92;61.68
39363;BME280;25088;43.238;23.110;2022-07-19T03:41:04;97141.19;;;17.85;61.21
39363;BME280;25088;43.238;23.110;2022-07-19T03:43:30;97149.25;;;17.81;61.42
39363;BME280;25088;43.238;23.110;2022-07-19T03:45:55;97138.72;;;17.83;61.36
39363;BME280;25088;43.238;23.110;2022-07-19T03:48:21;97140.13;;;18.15;60.37
39363;BME280;25088;43.238;23.110;2022-07-19T03:50:46;97137.66;;;18.13;60.03
39363;BME280;25088;43.238;23.110;2022-07-19T03:53:12;97142.44;;;18.37;59.70
39363;BME280;25088;43.238;23.110;2022-07-19T03:55:38;97137.44;;;18.04;60.59
39363;BME280;25088;43.238;23.110;2022-07-19T03:58:03;97146.25;;;18.12;60.95
39363;BME280;25088;43.238;23.110;2022-07-19T04:00:30;97145.38;;;18.16;60.87
39363;BME280;25088;43.238;23.110;2022-07-19T04:02:55;97152.22;;;18.24;60.37
39363;BME280;25088;43.238;23.110;2022-07-19T04:05:21;97153.59;;;18.26;61.32
39363;BME280;25088;43.238;23.110;2022-07-19T04:07:47;97154.88;;;18.34;61.06
39363;BME280;25088;43.238;23.110;2022-07-19T04:10:12;97153.03;;;18.53;60.56
39363;BME280;25088;43.238;23.110;2022-07-19T04:12:38;97151.56;;;18.66;60.59
39363;BME280;25088;43.238;23.110;2022-07-19T04:15:05;97154.25;;;18.76;59.60
39363;BME280;25088;43.238;23.110;2022-07-19T04:17:30;97105.22;;;18.53;59.92
39363;BME280;25088;43.238;23.110;2022-07-19T04:19:56;97156.59;;;18.88;60.40
39363;BME280;25088;43.238;23.110;2022-07-19T04:22:21;97137.53;;;18.87;60.19
39363;BME280;25088;43.238;23.110;2022-07-19T04:24:49;97155.84;;;19.06;60.26
39363;BME280;25088;43.238;23.110;2022-07-19T04:27:15;97143.13;;;19.05;60.34
39363;BME280;25088;43.238;23.110;2022-07-19T04:29:40;97152.06;;;19.21;60.41
39363;BME280;25088;43.238;23.110;2022-07-19T04:32:06;97158.78;;;19.34;60.52
39363;BME280;25088;43.238;23.110;2022-07-19T04:34:32;97141.22;;;19.44;60.15
39363;BME280;25088;43.238;23.110;2022-07-19T04:36:57;97150.41;;;19.63;59.94
39363;BME280;25088;43.238;23.110;2022-07-19T04:39:22;97154.91;;;19.78;60.30
39363;BME280;25088;43.238;23.110;2022-07-19T04:41:48;97153.25;;;19.96;60.03
39363;BME280;25088;43.238;23.110;2022-07-19T04:44:13;97141.44;;;19.90;60.01
39363;BME280;25088;43.238;23.110;2022-07-19T04:46:39;97161.00;;;20.12;59.59
39363;BME280;25088;43.238;23.110;2022-07-19T04:49:04;97158.31;;;20.26;59.72
39363;BME280;25088;43.238;23.110;2022-07-19T04:51:30;97144.78;;;20.38;59.02
39363;BME280;25088;43.238;23.110;2022-07-19T04:53:55;97145.16;;;20.51;59.64
39363;BME280;25088;43.238;23.110;2022-07-19T04:56:21;97158.25;;;20.64;59.66
39363;BME280;25088;43.238;23.110;2022-07-19T04:58:46;97153.81;;;20.77;59.37
39363;BME280;25088;43.238;23.110;2022-07-19T05:01:12;97153.56;;;21.06;59.43
39363;BME280;25088;43.238;23.110;2022-07-19T05:03:37;97138.31;;;21.03;59.06
39363;BME280;25088;43.238;23.110;2022-07-19T05:06:03;97162.41;;;21.35;57.42
39363;BME280;25088;43.238;23.110;2022-07-19T05:08:28;97160.34;;;21.55;56.63
39363;BME280;25088;43.238;23.110;2022-07-19T05:10:54;97169.00;;;21.53;56.56
39363;BME280;25088;43.238;23.110;2022-07-19T05:13:19;97158.75;;;21.76;56.45
39363;BME280;25088;43.238;23.110;2022-07-19T05:15:45;97162.50;;;21.94;55.95
39363;BME280;25088;43.238;23.110;2022-07-19T05:18:11;97161.13;;;22.05;54.82
39363;BME280;25088;43.238;23.110;2022-07-19T05:20:36;97166.91;;;22.31;54.06
39363;BME280;25088;43.238;23.110;2022-07-19T05:23:01;97171.28;;;22.46;54.62
39363;BME280;25088;43.238;23.110;2022-07-19T05:25:27;97174.19;;;22.63;54.34
39363;BME280;25088;43.238;23.110;2022-07-19T05:27:52;97170.00;;;22.75;54.32
39363;BME280;25088;43.238;23.110;2022-07-19T05:30:19;97166.84;;;22.90;53.04
39363;BME280;25088;43.238;23.110;2022-07-19T05:32:45;97145.97;;;22.87;52.96
39363;BME280;25088;43.238;23.110;2022-07-19T05:35:10;97167.19;;;22.97;49.13
39363;BME280;25088;43.238;23.110;2022-07-19T05:37:36;97166.91;;;23.07;49.72
39363;BME280;25088;43.238;23.110;2022-07-19T05:40:01;97167.28;;;23.14;47.55
39363;BME280;25088;43.238;23.110;2022-07-19T05:42:27;97170.41;;;23.21;47.89
39363;BME280;25088;43.238;23.110;2022-07-19T05:44:52;97169.59;;;23.21;47.14
39363;BME280;25088;43.238;23.110;2022-07-19T05:47:18;97166.16;;;23.24;47.62
39363;BME280;25088;43.238;23.110;2022-07-19T05:49:43;97172.59;;;23.42;47.14
39363;BME280;25088;43.238;23.110;2022-07-19T05:52:09;97171.19;;;23.53;47.05
39363;BME280;25088;43.238;23.110;2022-07-19T05:54:35;97174.63;;;23.59;46.01
39363;BME280;25088;43.238;23.110;2022-07-19T05:57:00;97167.28;;;23.71;44.96
39363;BME280;25088;43.238;23.110;2022-07-19T05:59:26;97169.28;;;23.80;45.15
39363;BME280;25088;43.238;23.110;2022-07-19T06:01:52;97167.97;;;23.77;43.41
39363;BME280;25088;43.238;23.110;2022-07-19T06:04:17;97173.75;;;23.98;44.39
39363;BME280;25088;43.238;23.110;2022-07-19T06:06:43;97183.91;;;24.11;42.71
39363;BME280;25088;43.238;23.110;2022-07-19T06:09:09;97183.41;;;24.27;43.04
39363;BME280;25088;43.238;23.110;2022-07-19T06:11:38;97181.78;;;24.34;42.89
39363;BME280;25088;43.238;23.110;2022-07-19T06:14:03;97185.25;;;24.48;43.41
39363;BME280;25088;43.238;23.110;2022-07-19T06:16:31;97151.25;;;24.29;43.72
39363;BME280;25088;43.238;23.110;2022-07-19T06:18:57;97182.59;;;24.69;43.12
39363;BME280;25088;43.238;23.110;2022-07-19T06:21:22;97168.97;;;24.77;43.41
39363;BME280;25088;43.238;23.110;2022-07-19T06:23:48;97183.81;;;25.15;42.33
39363;BME280;25088;43.238;23.110;2022-07-19T06:26:15;97180.59;;;25.34;42.33
39363;BME280;25088;43.238;23.110;2022-07-19T06:28:40;97176.53;;;25.32;42.11
39363;BME280;25088;43.238;23.110;2022-07-19T06:31:10;97184.66;;;25.45;42.41
39363;BME280;25088;43.238;23.110;2022-07-19T06:33:43;97166.69;;;25.55;41.76
39363;BME280;25088;43.238;23.110;2022-07-19T06:36:09;97156.66;;;25.84;41.15
39363;BME280;25088;43.238;23.110;2022-07-19T06:38:35;97176.81;;;26.19;40.53
39363;BME280;25088;43.238;23.110;2022-07-19T06:41:00;97176.41;;;26.50;40.05
39363;BME280;25088;43.238;23.110;2022-07-19T06:43:26;97170.44;;;26.85;38.99
39363;BME280;25088;43.238;23.110;2022-07-19T06:45:52;97177.97;;;27.05;39.08
39363;BME280;25088;43.238;23.110;2022-07-19T06:48:17;97170.94;;;27.44;38.51
39363;BME280;25088;43.238;23.110;2022-07-19T06:50:43;97177.25;;;27.66;38.79
39363;BME280;25088;43.238;23.110;2022-07-19T06:53:08;97161.63;;;27.77;38.47
39363;BME280;25088;43.238;23.110;2022-07-19T06:55:35;97170.44;;;28.16;38.76
39363;BME280;25088;43.238;23.110;2022-07-19T06:58:01;97177.03;;;28.48;38.09
39363;BME280;25088;43.238;23.110;2022-07-19T07:00:27;97180.34;;;28.25;38.67
39363;BME280;25088;43.238;23.110;2022-07-19T07:02:52;97187.44;;;28.47;37.68
39363;BME280;25088;43.238;23.110;2022-07-19T07:05:18;97164.91;;;28.88;37.83
39363;BME280;25088;43.238;23.110;2022-07-19T07:07:43;97190.63;;;29.02;36.64
39363;BME280;25088;43.238;23.110;2022-07-19T07:10:09;97192.91;;;29.12;36.66
39363;BME280;25088;43.238;23.110;2022-07-19T07:12:35;97187.25;;;29.56;36.89
39363;BME280;25088;43.238;23.110;2022-07-19T07:15:01;97182.88;;;29.58;36.05
39363;BME280;25088;43.238;23.110;2022-07-19T07:17:26;97166.06;;;29.30;36.72
39363;BME280;25088;43.238;23.110;2022-07-19T07:19:52;97161.25;;;29.31;36.43
39363;BME280;25088;43.238;23.110;2022-07-19T07:22:18;97188.22;;;29.79;35.70
39363;BME280;25088;43.238;23.110;2022-07-19T07:24:43;97151.63;;;29.48;35.35
39363;BME280;25088;43.238;23.110;2022-07-19T07:27:09;97160.13;;;29.99;35.12
39363;BME280;25088;43.238;23.110;2022-07-19T07:29:34;97188.13;;;30.27;35.34
39363;BME280;25088;43.238;23.110;2022-07-19T07:32:00;97184.00;;;30.40;35.76
39363;BME280;25088;43.238;23.110;2022-07-19T07:34:26;97189.41;;;30.49;34.85
39363;BME280;25088;43.238;23.110;2022-07-19T07:36:52;97184.81;;;30.60;34.85
39363;BME280;25088;43.238;23.110;2022-07-19T07:39:17;97189.28;;;30.80;34.49
39363;BME280;25088;43.238;23.110;2022-07-19T07:41:43;97184.22;;;31.09;34.78
39363;BME280;25088;43.238;23.110;2022-07-19T07:44:08;97174.16;;;31.11;33.03
39363;BME280;25088;43.238;23.110;2022-07-19T07:46:34;97178.94;;;30.88;33.75
39363;BME280;25088;43.238;23.110;2022-07-19T07:48:59;97179.59;;;31.01;33.97
39363;BME280;25088;43.238;23.110;2022-07-19T07:51:25;97177.97;;;31.42;33.46
39363;BME280;25088;43.238;23.110;2022-07-19T07:53:51;97188.63;;;31.52;32.42
39363;BME280;25088;43.238;23.110;2022-07-19T07:56:17;97187.06;;;31.55;31.28
39363;BME280;25088;43.238;23.110;2022-07-19T07:58:42;97187.13;;;31.58;31.60
39363;BME280;25088;43.238;23.110;2022-07-19T08:01:08;97168.41;;;31.73;31.33
39363;BME280;25088;43.238;23.110;2022-07-19T08:03:33;97180.31;;;32.12;31.35
39363;BME280;25088;43.238;23.110;2022-07-19T08:05:59;97183.97;;;32.70;29.66
39363;BME280;25088;43.238;23.110;2022-07-19T08:08:25;97190.34;;;32.97;29.44
39363;BME280;25088;43.238;23.110;2022-07-19T08:10:56;97189.75;;;32.80;28.96
39363;BME280;25088;43.238;23.110;2022-07-19T08:13:22;97194.06;;;32.40;28.80
39363;BME280;25088;43.238;23.110;2022-07-19T08:15:48;97200.84;;;32.92;27.68
39363;BME280;25088;43.238;23.110;2022-07-19T08:18:14;97190.94;;;32.79;28.32
39363;BME280;25088;43.238;23.110;2022-07-19T08:20:39;97193.34;;;33.11;29.59
39363;BME280;25088;43.238;23.110;2022-07-19T08:23:05;97172.03;;;33.21;26.69
39363;BME280;25088;43.238;23.110;2022-07-19T08:25:30;97196.88;;;33.38;28.08
39363;BME280;25088;43.238;23.110;2022-07-19T08:27:57;97194.75;;;33.31;27.84
39363;BME280;25088;43.238;23.110;2022-07-19T08:30:23;97194.88;;;33.86;27.27
39363;BME280;25088;43.238;23.110;2022-07-19T08:32:48;97195.66;;;33.80;27.15
39363;BME280;25088;43.238;23.110;2022-07-19T08:35:14;97193.53;;;33.29;26.92
39363;BME280;25088;43.238;23.110;2022-07-19T08:37:39;97189.22;;;33.86;27.29
39363;BME280;25088;43.238;23.110;2022-07-19T08:40:06;97183.75;;;34.08;27.35
39363;BME280;25088;43.238;23.110;2022-07-19T08:42:32;97179.66;;;34.71;27.33
39363;BME280;25088;43.238;23.110;2022-07-19T08:45:00;97184.50;;;34.70;26.95
39363;BME280;25088;43.238;23.110;2022-07-19T08:47:28;97177.97;;;34.56;26.54
39363;BME280;25088;43.238;23.110;2022-07-19T08:49:54;97163.91;;;34.84;25.96
39363;BME280;25088;43.238;23.110;2022-07-19T08:52:22;97178.81;;;34.63;26.36
39363;BME280;25088;43.238;23.110;2022-07-19T08:54:48;97178.59;;;34.31;27.41
39363;BME280;25088;43.238;23.110;2022-07-19T08:57:13;97185.88;;;35.05;26.14
39363;BME280;25088;43.238;23.110;2022-07-19T08:59:57;97178.63;;;35.26;26.61
39363;BME280;25088;43.238;23.110;2022-07-19T09:02:23;97185.94;;;35.16;26.73
39363;BME280;25088;43.238;23.110;2022-07-19T09:05:07;97184.78;;;35.60;26.35
39363;BME280;25088;43.238;23.110;2022-07-19T09:07:39;97183.97;;;35.52;25.69
39363;BME280;25088;43.238;23.110;2022-07-19T09:10:19;97183.16;;;35.80;26.62
39363;BME280;25088;43.238;23.110;2022-07-19T09:13:03;97181.94;;;36.17;25.36
39363;BME280;25088;43.238;23.110;2022-07-19T09:15:43;97171.38;;;36.10;26.92
39363;BME280;25088;43.238;23.110;2022-07-19T09:20:44;97168.91;;;36.30;24.72
39363;BME280;25088;43.238;23.110;2022-07-19T09:23:10;97172.63;;;35.95;26.19
39363;BME280;25088;43.238;23.110;2022-07-19T09:25:43;97167.69;;;36.35;24.60
39363;BME280;25088;43.238;23.110;2022-07-19T09:28:09;97162.41;;;36.47;24.54
39363;BME280;25088;43.238;23.110;2022-07-19T09:30:45;97170.81;;;36.76;23.07
39363;BME280;25088;43.238;23.110;2022-07-19T09:33:17;97182.59;;;36.85;23.61
39363;BME280;25088;43.238;23.110;2022-07-19T09:35:48;97166.38;;;36.68;23.71
39363;BME280;25088;43.238;23.110;2022-07-19T09:38:20;97178.69;;;36.15;23.55
39363;BME280;25088;43.238;23.110;2022-07-19T09:40:47;97158.75;;;36.43;25.29
39363;BME280;25088;43.238;23.110;2022-07-19T09:43:14;97164.47;;;36.18;25.30
39363;BME280;25088;43.238;23.110;2022-07-19T09:45:39;97176.28;;;36.03;26.13
39363;BME280;25088;43.238;23.110;2022-07-19T09:48:05;97157.41;;;36.73;24.84
39363;BME280;25088;43.238;23.110;2022-07-19T09:50:30;97149.44;;;36.14;25.17
39363;BME280;25088;43.238;23.110;2022-07-19T09:53:04;97174.19;;;36.46;24.87
39363;BME280;25088;43.238;23.110;2022-07-19T09:55:31;97176.22;;;36.24;24.93
39363;BME280;25088;43.238;23.110;2022-07-19T09:57:58;97167.34;;;36.11;25.34
39363;BME280;25088;43.238;23.110;2022-07-19T10:00:25;97163.84;;;36.95;24.80
39363;BME280;25088;43.238;23.110;2022-07-19T10:02:54;97160.31;;;37.46;24.59
39363;BME280;25088;43.238;23.110;2022-07-19T10:05:24;97162.19;;;37.01;24.79
39363;BME280;25088;43.238;23.110;2022-07-19T10:07:50;97161.44;;;37.56;24.31
39363;BME280;25088;43.238;23.110;2022-07-19T10:10:18;97152.91;;;37.53;24.26
39363;BME280;25088;43.238;23.110;2022-07-19T10:12:45;97148.84;;;37.54;24.13
39363;BME280;25088;43.238;23.110;2022-07-19T10:15:13;97153.50;;;37.26;24.64
39363;BME280;25088;43.238;23.110;2022-07-19T10:18:00;97153.28;;;37.58;24.34
39363;BME280;25088;43.238;23.110;2022-07-19T10:20:29;97147.25;;;37.49;24.06
39363;BME280;25088;43.238;23.110;2022-07-19T10:23:05;97138.41;;;37.33;24.00
39363;BME280;25088;43.238;23.110;2022-07-19T10:26:00;97141.53;;;37.53;23.87
39363;BME280;25088;43.238;23.110;2022-07-19T10:28:34;97132.97;;;37.56;23.05
39363;BME280;25088;43.238;23.110;2022-07-19T10:31:01;97133.25;;;37.69;23.25
39363;BME280;25088;43.238;23.110;2022-07-19T10:33:36;97131.09;;;37.32;23.64
39363;BME280;25088;43.238;23.110;2022-07-19T10:36:35;97124.91;;;37.96;23.31
39363;BME280;25088;43.238;23.110;2022-07-19T10:44:30;97131.75;;;36.87;22.86
39363;BME280;25088;43.238;23.110;2022-07-19T10:46:56;97121.22;;;37.47;22.82
39363;BME280;25088;43.238;23.110;2022-07-19T10:49:40;97122.50;;;37.91;23.00
39363;BME280;25088;43.238;23.110;2022-07-19T10:57:41;97118.38;;;37.95;22.42
39363;BME280;25088;43.238;23.110;2022-07-19T11:00:30;97118.25;;;37.65;22.44
39363;BME280;25088;43.238;23.110;2022-07-19T11:06:18;97104.66;;;36.58;22.69
39363;BME280;25088;43.238;23.110;2022-07-19T11:08:44;97101.72;;;36.75;22.14
39363;BME280;25088;43.238;23.110;2022-07-19T11:11:15;97101.78;;;37.87;21.91
39363;BME280;25088;43.238;23.110;2022-07-19T11:13:49;97095.44;;;38.78;21.53
39363;BME280;25088;43.238;23.110;2022-07-19T11:16:15;97097.31;;;38.88;20.49
39363;BME280;25088;43.238;23.110;2022-07-19T11:18:41;97105.81;;;38.27;21.64
39363;BME280;25088;43.238;23.110;2022-07-19T11:21:09;97102.91;;;38.99;19.96
39363;BME280;25088;43.238;23.110;2022-07-19T11:23:37;97083.41;;;39.21;20.91
39363;BME280;25088;43.238;23.110;2022-07-19T11:28:33;97089.44;;;38.99;20.26
39363;BME280;25088;43.238;23.110;2022-07-19T11:30:59;97079.41;;;39.42;20.03
39363;BME280;25088;43.238;23.110;2022-07-19T11:33:25;97088.28;;;39.47;20.14
39363;BME280;25088;43.238;23.110;2022-07-19T11:35:59;97085.50;;;38.90;21.51
39363;BME280;25088;43.238;23.110;2022-07-19T11:38:41;97090.78;;;38.91;20.74
39363;BME280;25088;43.238;23.110;2022-07-19T11:41:22;97049.81;;;37.68;22.19
39363;BME280;25088;43.238;23.110;2022-07-19T11:43:56;97077.34;;;37.86;23.04
39363;BME280;25088;43.238;23.110;2022-07-19T11:46:26;97077.28;;;38.27;21.48
39363;BME280;25088;43.238;23.110;2022-07-19T11:48:59;97075.50;;;37.65;21.84
39363;BME280;25088;43.238;23.110;2022-07-19T11:51:26;97071.75;;;38.50;22.25
39363;BME280;25088;43.238;23.110;2022-07-19T11:53:53;97068.50;;;38.48;20.93
39363;BME280;25088;43.238;23.110;2022-07-19T11:56:24;97064.59;;;39.23;20.52
39363;BME280;25088;43.238;23.110;2022-07-19T11:58:50;97055.34;;;39.63;20.64
39363;BME280;25088;43.238;23.110;2022-07-19T12:04:02;97058.53;;;39.18;21.20
39363;BME280;25088;43.238;23.110;2022-07-19T12:09:07;97056.25;;;38.82;22.27
39363;BME280;25088;43.238;23.110;2022-07-19T12:11:45;97040.72;;;38.83;21.55
39363;BME280;25088;43.238;23.110;2022-07-19T12:14:25;97040.84;;;39.30;21.38
39363;BME280;25088;43.238;23.110;2022-07-19T12:17:20;97046.28;;;38.33;20.62
39363;BME280;25088;43.238;23.110;2022-07-19T12:19:51;97040.78;;;38.80;20.97
39363;BME280;25088;43.238;23.110;2022-07-19T12:24:56;97033.72;;;39.15;20.37
39363;BME280;25088;43.238;23.110;2022-07-19T12:27:21;97030.25;;;38.73;20.74
39363;BME280;25088;43.238;23.110;2022-07-19T12:29:53;97021.59;;;39.07;20.83
39363;BME280;25088;43.238;23.110;2022-07-19T12:32:46;97023.34;;;39.75;20.11
39363;BME280;25088;43.238;23.110;2022-07-19T12:35:14;97029.28;;;39.37;20.07
39363;BME280;25088;43.238;23.110;2022-07-19T12:37:45;97021.97;;;38.82;21.31
39363;BME280;25088;43.238;23.110;2022-07-19T12:40:17;97038.88;;;36.48;23.25
39363;BME280;25088;43.238;23.110;2022-07-19T12:42:55;97031.03;;;34.97;24.58
39363;BME280;25088;43.238;23.110;2022-07-19T12:45:25;97032.00;;;34.17;25.69
39363;BME280;25088;43.238;23.110;2022-07-19T12:47:51;97018.34;;;33.09;26.83
39363;BME280;25088;43.238;23.110;2022-07-19T12:52:51;97009.72;;;34.16;25.44
39363;BME280;25088;43.238;23.110;2022-07-19T12:55:18;97021.31;;;35.52;23.45
39363;BME280;25088;43.238;23.110;2022-07-19T12:57:43;97000.19;;;34.85;24.13
39363;BME280;25088;43.238;23.110;2022-07-19T13:00:09;97017.25;;;35.53;23.81
39363;BME280;25088;43.238;23.110;2022-07-19T13:02:36;97017.53;;;36.85;22.20
39363;BME280;25088;43.238;23.110;2022-07-19T13:05:11;97006.94;;;37.79;21.60
39363;BME280;25088;43.238;23.110;2022-07-19T13:07:37;97010.22;;;38.15;21.88
39363;BME280;25088;43.238;23.110;2022-07-19T13:10:04;97006.94;;;38.51;21.19
39363;BME280;25088;43.238;23.110;2022-07-19T13:12:29;96994.97;;;37.57;21.29
39363;BME280;25088;43.238;23.110;2022-07-19T13:14:55;97009.94;;;38.06;21.80
39363;BME280;25088;43.238;23.110;2022-07-19T13:17:20;97005.88;;;38.38;21.83
39363;BME280;25088;43.238;23.110;2022-07-19T13:19:49;96990.19;;;37.88;20.96
39363;BME280;25088;43.238;23.110;2022-07-19T13:22:14;97009.78;;;36.09;23.39